In Rescue
 
Open Full Screen Window  High Contrast Mode
Wind Gusting 00 knots
13
April 19, 2021 6:57 PM CDT
Weather Information
Wind Direction
  310 °
Wind Speed
  13 kt (15 mph)
Wind Gust
  00 kt (0 mph)
Altimeter
30.04 in
Visibility
10 SM
Temperature
03° C
37° F
Dewpoint
-08° C
18° F
Humidity
45%
1hr Rain Fall
00.00 in.
24hr Rain Fall
00.00 in.
Sky Condition
Overcast @ 5,000 ft
VFR

METAR KOWA 192357Z AUTO 31013KT 10SM OVC050 03/M08 A3004 RMK AO2

FAA Disclaimer: The data displayed is for advisory purposes only and is not to be used for flight planning or operations.